createdAt,value
2022-12-31T09:19:17.642Z,9.76
2022-12-31T09:21:55.834Z,9.79
2022-12-31T09:24:34.054Z,9.79
2022-12-31T09:27:27.283Z,9.83
2022-12-31T09:30:09.637Z,9.84
2022-12-31T09:33:00.862Z,9.86
2022-12-31T09:35:52.794Z,9.88
2022-12-31T09:38:37.175Z,9.86
2022-12-31T09:41:27.594Z,9.88
2022-12-31T09:44:52.039Z,9.91
2022-12-31T09:48:14.707Z,9.94
2022-12-31T09:51:12.142Z,9.94
2022-12-31T09:54:08.535Z,9.94
2022-12-31T09:57:01.141Z,9.93
2022-12-31T09:59:48.854Z,9.94
2022-12-31T10:02:58.925Z,9.96
2022-12-31T10:05:56.579Z,10.00
2022-12-31T10:08:57.088Z,10.03
2022-12-31T10:11:50.996Z,10.01
2022-12-31T10:14:49.012Z,10.03
2022-12-31T10:17:52.324Z,10.08
2022-12-31T10:20:50.399Z,10.12
2022-12-31T10:23:58.664Z,10.12
2022-12-31T10:27:05.349Z,10.14
2022-12-31T10:29:56.318Z,10.16
2022-12-31T10:32:46.345Z,10.16
2022-12-31T10:35:44.531Z,10.15
2022-12-31T10:38:35.595Z,10.16
2022-12-31T10:42:12.059Z,10.08
2022-12-31T10:45:19.667Z,10.05
2022-12-31T10:48:47.379Z,9.97
2022-12-31T10:51:57.009Z,9.93
2022-12-31T10:55:10.740Z,9.92
2022-12-31T10:58:44.253Z,9.88
2022-12-31T11:01:29.354Z,9.84
2022-12-31T11:04:42.545Z,9.81
2022-12-31T11:07:55.276Z,9.80
2022-12-31T11:11:07.426Z,9.80
2022-12-31T11:14:31.920Z,9.79
2022-12-31T11:17:33.268Z,9.77
2022-12-31T11:20:39.545Z,9.79
2022-12-31T11:23:35.387Z,9.76
2022-12-31T11:26:23.706Z,9.76
2022-12-31T11:29:32.842Z,9.77
2022-12-31T11:32:34.326Z,9.73
2022-12-31T11:35:30.568Z,9.75
2022-12-31T11:38:24.763Z,9.75
2022-12-31T11:41:11.320Z,9.78
2022-12-31T11:44:00.160Z,9.80
2022-12-31T11:47:01.973Z,9.77
2022-12-31T11:49:57.734Z,9.80
2022-12-31T11:52:54.361Z,9.85
2022-12-31T11:56:02.262Z,9.86
2022-12-31T11:58:39.285Z,9.81
2022-12-31T12:01:22.547Z,9.83
2022-12-31T12:04:02.324Z,9.89
2022-12-31T12:06:39.644Z,9.89
2022-12-31T12:09:34.209Z,9.92
2022-12-31T12:12:11.787Z,9.93
2022-12-31T12:14:52.775Z,9.97
2022-12-31T12:17:35.861Z,9.96
2022-12-31T12:20:22.563Z,10.02
2022-12-31T12:23:02.564Z,10.07
2022-12-31T12:25:44.472Z,10.08
2022-12-31T12:28:28.242Z,10.10
2022-12-31T12:31:08.565Z,10.16
2022-12-31T12:33:48.563Z,10.18
2022-12-31T12:36:28.183Z,10.17
2022-12-31T12:39:07.132Z,10.19
2022-12-31T12:41:43.966Z,10.23
2022-12-31T12:44:21.561Z,10.29
2022-12-31T12:46:59.669Z,10.27
2022-12-31T12:49:43.463Z,10.35
2022-12-31T12:52:53.769Z,10.39
2022-12-31T12:55:45.851Z,10.43
2022-12-31T12:58:42.016Z,10.45
2022-12-31T13:01:35.220Z,10.48
2022-12-31T13:04:49.693Z,10.52
2022-12-31T13:07:50.393Z,10.61
2022-12-31T13:10:54.613Z,10.66
2022-12-31T13:13:44.645Z,10.69
2022-12-31T13:16:29.802Z,10.73
2022-12-31T13:19:15.138Z,10.79
2022-12-31T13:22:00.142Z,10.86
2022-12-31T13:24:53.889Z,10.88
2022-12-31T13:27:37.361Z,10.88
2022-12-31T13:30:31.477Z,10.98
2022-12-31T13:33:17.784Z,11.03
2022-12-31T13:36:00.013Z,11.04
2022-12-31T13:38:42.071Z,11.10
2022-12-31T13:41:28.303Z,11.12
2022-12-31T13:44:18.080Z,11.19
2022-12-31T13:47:04.818Z,11.20
2022-12-31T13:49:47.050Z,11.24
2022-12-31T13:52:37.776Z,11.28
2022-12-31T13:55:21.693Z,11.37
2022-12-31T13:58:13.229Z,11.39
2022-12-31T14:00:56.715Z,11.44
2022-12-31T14:03:45.677Z,11.47
2022-12-31T14:06:32.338Z,11.56
2022-12-31T14:09:14.869Z,11.58
2022-12-31T14:12:21.406Z,11.58
2022-12-31T14:15:14.099Z,11.68
2022-12-31T14:18:00.212Z,11.69
2022-12-31T14:20:49.189Z,11.71
2022-12-31T14:23:44.320Z,11.76
2022-12-31T14:26:29.448Z,11.81
2022-12-31T14:29:19.452Z,11.84
2022-12-31T14:32:23.035Z,11.92
2022-12-31T14:35:16.417Z,11.92
2022-12-31T14:37:59.134Z,12.02
2022-12-31T14:40:55.129Z,12.03
2022-12-31T14:43:48.974Z,12.14
2022-12-31T14:46:36.148Z,12.18
2022-12-31T14:49:43.166Z,12.27
2022-12-31T14:52:30.380Z,12.21
2022-12-31T14:55:30.507Z,12.27
2022-12-31T14:58:28.202Z,12.32
2022-12-31T15:01:10.596Z,12.32
2022-12-31T15:03:49.301Z,12.31
2022-12-31T15:07:00.713Z,12.36
2022-12-31T15:10:06.689Z,12.39
2022-12-31T15:13:01.935Z,12.44
2022-12-31T15:16:00.190Z,12.44
2022-12-31T15:18:55.570Z,12.46
2022-12-31T15:22:11.545Z,12.49
2022-12-31T15:24:51.495Z,12.52
2022-12-31T15:27:42.949Z,12.57
2022-12-31T15:30:43.431Z,12.61
2022-12-31T15:33:30.407Z,12.53
2022-12-31T15:36:24.482Z,12.58
2022-12-31T15:39:29.811Z,12.61
2022-12-31T15:45:14.712Z,12.63
2022-12-31T15:48:00.623Z,12.66
2022-12-31T15:50:42.341Z,12.70
2022-12-31T15:53:32.045Z,12.73
2022-12-31T15:56:22.065Z,12.77
2022-12-31T15:59:05.905Z,12.76
2022-12-31T16:01:44.896Z,12.80
2022-12-31T16:04:26.323Z,12.85
2022-12-31T16:07:09.681Z,12.88
2022-12-31T16:09:56.908Z,12.93
2022-12-31T16:12:44.842Z,12.95
2022-12-31T16:15:28.996Z,13.00
2022-12-31T16:18:09.439Z,13.01
2022-12-31T16:20:52.194Z,13.03
2022-12-31T16:23:31.069Z,13.10
2022-12-31T16:26:08.824Z,13.11
2022-12-31T16:28:52.316Z,13.11
2022-12-31T16:31:32.845Z,13.17
2022-12-31T16:34:16.799Z,13.21
2022-12-31T16:37:04.563Z,13.21
2022-12-31T16:40:04.699Z,13.27
2022-12-31T16:42:44.708Z,13.26
2022-12-31T16:45:37.438Z,13.31
2022-12-31T16:48:21.516Z,13.34
2022-12-31T16:51:00.184Z,13.39
2022-12-31T16:53:45.480Z,13.43
2022-12-31T16:56:33.445Z,13.49
2022-12-31T16:59:23.359Z,13.50
2022-12-31T17:02:07.216Z,13.52
2022-12-31T17:04:55.370Z,13.58
2022-12-31T17:07:46.759Z,13.59
2022-12-31T17:10:27.736Z,13.61
2022-12-31T17:13:29.664Z,13.65
2022-12-31T17:16:13.153Z,13.73
2022-12-31T17:18:54.491Z,13.74
2022-12-31T17:21:33.960Z,13.73
2022-12-31T17:24:17.322Z,13.76
2022-12-31T17:26:56.972Z,13.78
2022-12-31T17:29:35.240Z,13.76
2022-12-31T17:32:33.797Z,13.85
2022-12-31T17:35:33.114Z,13.82
2022-12-31T17:38:35.917Z,13.80
2022-12-31T17:41:29.675Z,13.79
2022-12-31T17:44:08.714Z,13.82
2022-12-31T17:46:46.857Z,13.88
2022-12-31T17:49:35.174Z,13.85
2022-12-31T17:52:19.631Z,13.91
2022-12-31T17:54:56.977Z,13.88
2022-12-31T17:57:34.417Z,13.91
2022-12-31T18:00:22.425Z,13.96
2022-12-31T18:03:00.669Z,13.96
2022-12-31T18:05:38.954Z,14.02
2022-12-31T18:08:18.277Z,14.08
2022-12-31T18:10:57.725Z,14.14
2022-12-31T18:13:35.338Z,14.10
2022-12-31T18:16:13.919Z,14.09
2022-12-31T18:18:53.967Z,14.17
2022-12-31T18:21:36.543Z,14.16
2022-12-31T18:24:25.848Z,14.16
2022-12-31T18:27:04.577Z,14.19
2022-12-31T18:29:42.028Z,14.16
2022-12-31T18:32:26.621Z,14.20
2022-12-31T18:35:03.673Z,14.22
2022-12-31T18:37:41.349Z,14.18
2022-12-31T18:40:21.100Z,14.14
2022-12-31T18:43:04.737Z,14.12
2022-12-31T18:45:42.248Z,14.15
2022-12-31T18:48:20.348Z,14.13
2022-12-31T18:50:57.307Z,14.14
2022-12-31T18:53:34.519Z,14.12
2022-12-31T18:56:18.867Z,14.11
2022-12-31T18:58:56.140Z,14.09
2022-12-31T19:01:35.882Z,14.14
2022-12-31T19:04:26.544Z,14.11
2022-12-31T19:07:04.208Z,14.11
2022-12-31T19:09:46.430Z,14.07
2022-12-31T19:12:27.425Z,14.07
2022-12-31T19:15:05.202Z,14.07
2022-12-31T19:17:42.014Z,14.09
2022-12-31T19:20:20.646Z,14.12
2022-12-31T19:22:59.232Z,14.13
2022-12-31T19:25:39.297Z,14.11
2022-12-31T19:28:23.909Z,14.11
2022-12-31T19:31:03.493Z,14.07
2022-12-31T19:33:41.287Z,14.05
2022-12-31T19:36:22.384Z,14.04
2022-12-31T19:39:00.482Z,14.08
2022-12-31T19:41:39.168Z,14.08
2022-12-31T19:44:23.583Z,13.99
2022-12-31T19:47:01.649Z,13.98
2022-12-31T19:49:39.545Z,14.00
2022-12-31T19:52:17.711Z,13.97
2022-12-31T19:54:54.783Z,13.99
2022-12-31T19:57:33.019Z,13.94
2022-12-31T20:00:17.394Z,13.96
2022-12-31T20:02:55.543Z,13.99
2022-12-31T20:05:34.151Z,13.96
2022-12-31T20:08:13.222Z,13.91
2022-12-31T20:10:51.364Z,13.94
2022-12-31T20:13:30.232Z,13.92
2022-12-31T20:16:12.173Z,13.95
2022-12-31T20:18:51.938Z,13.93
2022-12-31T20:21:32.981Z,13.89
2022-12-31T20:24:12.411Z,13.87
2022-12-31T20:26:49.615Z,13.86
2022-12-31T20:29:27.869Z,13.87
2022-12-31T20:32:08.656Z,13.82
2022-12-31T20:34:47.711Z,13.78
2022-12-31T20:37:25.217Z,13.71
2022-12-31T20:40:03.160Z,13.73
2022-12-31T20:42:41.105Z,13.67
2022-12-31T20:45:18.941Z,13.65
2022-12-31T20:47:59.407Z,13.67
2022-12-31T20:50:37.613Z,13.60
2022-12-31T20:53:15.180Z,13.60
2022-12-31T20:55:53.933Z,13.55
2022-12-31T20:58:34.317Z,13.51
2022-12-31T21:01:15.140Z,13.52
2022-12-31T21:04:05.947Z,13.52
2022-12-31T21:06:46.072Z,13.47
2022-12-31T21:09:23.974Z,13.52
2022-12-31T21:12:15.655Z,13.55
2022-12-31T21:14:55.101Z,13.55
2022-12-31T21:17:33.087Z,13.52
2022-12-31T21:20:15.320Z,13.55
2022-12-31T21:22:54.347Z,13.54
2022-12-31T21:25:32.461Z,13.53
2022-12-31T21:28:11.708Z,13.53
2022-12-31T21:30:49.330Z,13.49
2022-12-31T21:33:26.598Z,13.51
2022-12-31T21:36:06.326Z,13.50
2022-12-31T21:38:43.664Z,13.47
2022-12-31T21:41:34.055Z,13.43
2022-12-31T21:44:13.102Z,13.45
2022-12-31T21:47:25.085Z,13.46
2022-12-31T21:49:51.853Z,13.44
2022-12-31T21:52:34.611Z,13.45
2022-12-31T21:55:27.694Z,13.45
2022-12-31T22:01:16.027Z,13.44
2022-12-31T22:03:53.828Z,13.44
2022-12-31T22:06:33.852Z,13.44
2022-12-31T22:09:13.598Z,13.41
2022-12-31T22:11:50.967Z,13.39
